ALK147 VCBI-ZGGG
Flight info
| Callsign | ALK147 |
|---|---|
| Flight time | N/A |
| Altitude | 390 |
| Route | DCT DORTA DCT ESPAP P762 DWI L301 BKK Y20 KRT B460 SAV A202 VILAO/K0883F390 A202 DONGI/K0867F410 A202 ASSAD/K0865S1250 A202 SIKOU/N0467F410 J104 CHALI DCT SAPAX/N0475F400 DCT BIGEX B330 TAMOT W68 IDUMA A461 SHL DCT |
| Aircraft | A343/H-SDE2E3GHIJ3J4J5LM1ORWXY/LB1D1 |
Departure
| Time | 2026-04-23 10:37 |
|---|---|
| Airport | Bandaranaike International Colombo Airport (VCBI) |
Arrival
| Time | N/A |
|---|---|
| Airport | Guangzhou Baiyun International Airport (ZGGG) |
| Time | Latitude | Longitude | Altitude | Speed | Heading |
|---|---|---|---|---|---|
| 2026-04-23 10:22 | 7.17611 | 79.88413 | 31 ft | 0 kts | 37° |
| 2026-04-23 10:24 | 7.17600 | 79.88405 | 30 ft | 3 kts | 37° |
| 2026-04-23 10:25 | 7.17585 | 79.88394 | 31 ft | 3 kts | 37° |
| 2026-04-23 10:25 | 7.17570 | 79.88382 | 29 ft | 3 kts | 13° |
| 2026-04-23 10:25 | 7.17551 | 79.88377 | 28 ft | 3 kts | 356° |
| 2026-04-23 10:25 | 7.17532 | 79.88381 | 29 ft | 3 kts | 322° |
| 2026-04-23 10:26 | 7.17524 | 79.88388 | 28 ft | 0 kts | 306° |
| 2026-04-23 10:28 | 7.17526 | 79.88386 | 29 ft | 1 kts | 306° |
| 2026-04-23 10:28 | 7.17531 | 79.88378 | 29 ft | 2 kts | 307° |
| 2026-04-23 10:28 | 7.17545 | 79.88360 | 51 ft | 4 kts | 307° |
| 2026-04-23 10:29 | 7.17566 | 79.88331 | 31 ft | 6 kts | 307° |
| 2026-04-23 10:29 | 7.17594 | 79.88293 | 31 ft | 7 kts | 307° |
| 2026-04-23 10:29 | 7.17631 | 79.88257 | 32 ft | 7 kts | 333° |
| 2026-04-23 10:29 | 7.17679 | 79.88265 | 32 ft | 8 kts | 28° |
| 2026-04-23 10:30 | 7.17724 | 79.88303 | 32 ft | 10 kts | 37° |
| 2026-04-23 10:30 | 7.17788 | 79.88351 | 31 ft | 12 kts | 37° |
| 2026-04-23 10:30 | 7.17863 | 79.88409 | 31 ft | 15 kts | 36° |
| 2026-04-23 10:30 | 7.17948 | 79.88473 | 31 ft | 16 kts | 37° |
| 2026-04-23 10:31 | 7.18043 | 79.88545 | 31 ft | 18 kts | 37° |
| 2026-04-23 10:31 | 7.18146 | 79.88626 | 31 ft | 19 kts | 37° |
| 2026-04-23 10:31 | 7.18256 | 79.88709 | 31 ft | 20 kts | 37° |
| 2026-04-23 10:31 | 7.18372 | 79.88796 | 31 ft | 21 kts | 36° |
| 2026-04-23 10:32 | 7.18490 | 79.88887 | 32 ft | 22 kts | 39° |
| 2026-04-23 10:32 | 7.18613 | 79.88981 | 32 ft | 22 kts | 37° |
| 2026-04-23 10:32 | 7.18740 | 79.89078 | 32 ft | 23 kts | 37° |
| 2026-04-23 10:32 | 7.18872 | 79.89179 | 31 ft | 24 kts | 37° |
| 2026-04-23 10:33 | 7.19010 | 79.89284 | 31 ft | 25 kts | 37° |
| 2026-04-23 10:33 | 7.19141 | 79.89384 | 31 ft | 6 kts | 37° |
| 2026-04-23 10:33 | 7.19146 | 79.89388 | 31 ft | 2 kts | 37° |
| 2026-04-23 10:33 | 7.19165 | 79.89400 | 31 ft | 5 kts | 28° |
| 2026-04-23 10:34 | 7.19203 | 79.89405 | 31 ft | 7 kts | 353° |
| 2026-04-23 10:34 | 7.19227 | 79.89381 | 31 ft | 5 kts | 313° |
| 2026-04-23 10:34 | 7.19254 | 79.89348 | 30 ft | 7 kts | 307° |
| 2026-04-23 10:34 | 7.19286 | 79.89306 | 31 ft | 8 kts | 306° |
| 2026-04-23 10:35 | 7.19286 | 79.89271 | 31 ft | 3 kts | 240° |
| 2026-04-23 10:35 | 7.19275 | 79.89262 | 31 ft | 2 kts | 215° |
| 2026-04-23 10:35 | 7.19262 | 79.89252 | 31 ft | 3 kts | 218° |
| 2026-04-23 10:35 | 7.19171 | 79.89182 | 32 ft | 42 kts | 216° |
| 2026-04-23 10:36 | 7.18790 | 79.88894 | 33 ft | 93 kts | 217° |
| 2026-04-23 10:36 | 7.18155 | 79.88406 | 32 ft | 135 kts | 217° |
| 2026-04-23 10:36 | 7.17334 | 79.87803 | 243 ft | 153 kts | 217° |
| 2026-04-23 10:36 | 7.16736 | 79.87401 | 441 ft | 159 kts | 214° |
| 2026-04-23 10:37 | 7.15822 | 79.86753 | 820 ft | 162 kts | 218° |
| 2026-04-23 10:37 | 7.14717 | 79.86536 | 1223 ft | 178 kts | 170° |
| 2026-04-23 10:37 | 7.13297 | 79.87580 | 1707 ft | 203 kts | 139° |
| 2026-04-23 10:37 | 7.12201 | 79.88511 | 2183 ft | 214 kts | 147° |
| 2026-04-23 10:38 | 7.11335 | 79.89126 | 2325 ft | 235 kts | 147° |
| 2026-04-23 10:38 | 7.10072 | 79.90273 | 2880 ft | 251 kts | 130° |
| 2026-04-23 10:38 | 7.09210 | 79.91818 | 3522 ft | 259 kts | 107° |
| 2026-04-23 10:38 | 7.09039 | 79.93657 | 3875 ft | 269 kts | 81° |
| 2026-04-23 10:39 | 7.09693 | 79.95377 | 3965 ft | 268 kts | 55° |
| 2026-04-23 10:39 | 7.11058 | 79.96634 | 3976 ft | 268 kts | 28° |
| 2026-04-23 10:39 | 7.12829 | 79.97202 | 3979 ft | 268 kts | 9° |
| 2026-04-23 10:39 | 7.14679 | 79.97445 | 3970 ft | 269 kts | 7° |
| 2026-04-23 10:40 | 7.16488 | 79.97898 | 3967 ft | 268 kts | 26° |
| 2026-04-23 10:40 | 7.18062 | 79.98886 | 3975 ft | 267 kts | 37° |
| 2026-04-23 10:40 | 7.19547 | 80.00020 | 3977 ft | 268 kts | 38° |
| 2026-04-23 10:40 | 7.21023 | 80.01171 | 3979 ft | 268 kts | 38° |
| 2026-04-23 10:41 | 7.22500 | 80.02314 | 3979 ft | 268 kts | 38° |
| 2026-04-23 10:41 | 7.23966 | 80.03474 | 3983 ft | 269 kts | 41° |
| 2026-04-23 10:41 | 7.25139 | 80.04921 | 3984 ft | 268 kts | 63° |
| 2026-04-23 10:41 | 7.25646 | 80.06708 | 3995 ft | 267 kts | 83° |
| 2026-04-23 10:42 | 7.25778 | 80.08571 | 3989 ft | 268 kts | 87° |
| 2026-04-23 10:42 | 7.25860 | 80.10429 | 3991 ft | 269 kts | 86° |
| 2026-04-23 10:42 | 7.25945 | 80.12303 | 3994 ft | 268 kts | 87° |
| 2026-04-23 10:42 | 7.26036 | 80.14183 | 3993 ft | 268 kts | 87° |
| 2026-04-23 10:43 | 7.26134 | 80.16061 | 3999 ft | 269 kts | 86° |
| 2026-04-23 10:43 | 7.26234 | 80.17944 | 4012 ft | 270 kts | 85° |